Cottonwood, AK

2:24 PM AKST on December 06, 2016 (GMT -0900)
Hayfield Rd. | | Change Station

Elev 82 ft 61.51 °N, 149.57 °W | Updated 2 seconds ago

Mostly Cloudy
Mostly Cloudy
13.0 °F
Feels Like 13.0 °F
N
0.0
Wind Variable Wind from NNE
Gusts 0.0 mph

Today
High -- | Low -- °F
--% Chance of Precip.
Yesterday
High -- | Low -- °F
Precip. -- in
Pressure 30.23 in
Visibility 10.0 miles
Clouds Mostly Cloudy 11000 ft
Dew Point Not available.
Humidity Not available.
Rainfall 0.00 in
Snow Depth Not available.
9:58 AM 3:40 PM
Waxing Crescent, 46% visible
METAR PAWS 062316Z AUTO 32005KT 10SM BKN110 M12/M17 A3023 RMK AO1
Pressure 30.23 in
Visibility 10.0 miles
Clouds Mostly Cloudy 11000 ft
Dew Point Not available.
Humidity Not available.
Rainfall 0.00 in
Snow Depth Not available.
9:58 AM 3:40 PM
Waxing Crescent, 46% visible
METAR PAWS 062316Z AUTO 32005KT 10SM BKN110 M12/M17 A3023 RMK AO1

10-Day Weather Forecast

Almanac

Astronomy

Dec. 06, 2016 Rise Set
Actual Time
Civil Twilight
Nautical Twilight
Astronomical Twilight
Moon
Length of Visible Light
Length of Day
Tomorrow will be .
, % of the Moon is Illuminated

Today's Extremes

State Highs State Lows

Community

WunderPhotos

Upload Photos

1,956,044 photos uploaded!

WunderBlog® & News

Nearby

Air Quality

  Air Quality AQ Index Pollutant
Not available.

Snow Depth

Station Depth Elevation

Earthquake Activity

City Distance Mag. Time & Date
Minimum magnitude displayed is 2.5.

Coastal Water Temperatures

Place Temperature

Stations

Nearby Weather Stations

Station Location Temp. Windchill Dew Point Humidity Wind Precip. Elev Updated Type
                   

Watches & Warnings

There are currently no watches in effect.